createdAt,value
2023-02-22T00:00:48.939Z,18.20
2023-02-22T00:03:25.291Z,18.40
2023-02-22T00:06:02.618Z,17.50
2023-02-22T00:08:34.357Z,18.42
2023-02-22T00:11:04.313Z,18.77
2023-02-22T00:13:31.517Z,19.17
2023-02-22T00:16:00.209Z,16.77
2023-02-22T00:18:28.900Z,15.90
2023-02-22T00:21:00.144Z,16.60
2023-02-22T00:23:29.824Z,17.55
2023-02-22T00:25:59.337Z,17.23
2023-02-22T00:28:27.122Z,15.73
2023-02-22T00:30:54.934Z,17.70
2023-02-22T00:33:23.621Z,17.88
2023-02-22T00:35:51.237Z,19.58
2023-02-22T00:38:19.511Z,16.65
2023-02-22T00:40:46.985Z,18.05
2023-02-22T00:43:15.006Z,19.25
2023-02-22T00:45:42.801Z,16.30
2023-02-22T00:48:10.453Z,18.05
2023-02-22T00:50:38.011Z,18.02
2023-02-22T00:53:06.127Z,19.80
2023-02-22T00:55:36.246Z,18.00
2023-02-22T00:58:04.840Z,18.75
2023-02-22T01:00:38.862Z,17.65
2023-02-22T01:03:10.740Z,16.88
2023-02-22T01:05:38.428Z,18.15
2023-02-22T01:08:08.327Z,15.32
2023-02-22T01:10:37.028Z,16.40
2023-02-22T01:13:09.307Z,18.15
2023-02-22T01:15:38.928Z,17.58
2023-02-22T01:18:06.568Z,18.25
2023-02-22T01:20:33.866Z,19.40
2023-02-22T01:23:03.848Z,18.85
2023-02-22T01:25:31.557Z,16.40
2023-02-22T01:28:00.984Z,16.17
2023-02-22T01:30:32.997Z,14.85
2023-02-22T01:33:01.796Z,15.80
2023-02-22T01:35:31.915Z,17.23
2023-02-22T01:37:59.623Z,17.48
2023-02-22T01:40:38.550Z,17.98
2023-02-22T01:43:20.237Z,17.73
2023-02-22T01:45:53.852Z,17.02
2023-02-22T01:48:27.267Z,15.20
2023-02-22T01:51:02.149Z,15.00
2023-02-22T01:53:36.927Z,14.50
2023-02-22T01:56:04.997Z,15.75
2023-02-22T01:58:35.325Z,16.25
2023-02-22T02:01:02.873Z,15.70
2023-02-22T02:03:33.551Z,18.50
2023-02-22T02:06:05.327Z,16.83
2023-02-22T02:08:47.557Z,17.65
2023-02-22T02:11:15.176Z,16.77
2023-02-22T02:13:42.587Z,15.85
2023-02-22T02:16:10.051Z,16.20
2023-02-22T02:18:37.322Z,16.80
2023-02-22T02:21:19.557Z,19.15
2023-02-22T02:23:55.636Z,18.08
2023-02-22T02:26:55.231Z,16.27
2023-02-22T02:29:41.284Z,18.98
2023-02-22T02:32:27.298Z,16.75
2023-02-22T02:34:59.074Z,21.17
2023-02-22T02:37:55.282Z,16.52
2023-02-22T02:40:26.065Z,17.63
2023-02-22T02:43:02.187Z,18.73
2023-02-22T02:45:40.027Z,18.15
2023-02-22T02:48:11.727Z,18.20
2023-02-22T02:50:47.697Z,18.05
2023-02-22T02:53:21.023Z,21.48
2023-02-22T02:55:48.297Z,22.42
2023-02-22T02:58:22.192Z,22.52
2023-02-22T03:00:53.298Z,19.35
2023-02-22T03:03:56.456Z,22.17
2023-02-22T03:06:34.599Z,19.42
2023-02-22T03:09:26.799Z,18.27
2023-02-22T03:12:15.430Z,19.80
2023-02-22T03:15:13.417Z,20.98
2023-02-22T03:17:59.348Z,21.67
2023-02-22T03:20:37.066Z,22.98
2023-02-22T03:23:07.233Z,22.95
2023-02-22T03:25:40.168Z,20.80
2023-02-22T03:28:11.865Z,20.80
2023-02-22T03:30:51.938Z,21.90
2023-02-22T03:33:28.871Z,22.42
2023-02-22T03:36:01.041Z,24.08
2023-02-22T03:38:32.637Z,23.55
2023-02-22T03:41:02.684Z,24.55
2023-02-22T03:43:38.709Z,22.55
2023-02-22T03:46:12.670Z,23.92
2023-02-22T03:48:51.562Z,20.50
2023-02-22T03:51:19.217Z,23.30
2023-02-22T03:56:35.779Z,22.30
2023-02-22T03:59:06.439Z,24.75
2023-02-22T04:01:34.858Z,23.55
2023-02-22T04:04:02.052Z,22.38
2023-02-22T04:06:30.234Z,24.40
2023-02-22T04:08:58.700Z,20.25
2023-02-22T04:11:26.233Z,24.95
2023-02-22T04:13:54.934Z,21.92
2023-02-22T04:16:22.480Z,26.65
2023-02-22T04:18:51.016Z,24.77
2023-02-22T04:21:19.712Z,22.38
2023-02-22T04:23:49.442Z,23.27
2023-02-22T04:26:17.074Z,26.27
2023-02-22T04:28:49.728Z,28.58
2023-02-22T04:31:19.576Z,24.27
2023-02-22T04:33:48.453Z,23.27
2023-02-22T04:36:19.036Z,24.83
2023-02-22T04:38:46.386Z,24.17
2023-02-22T04:41:14.182Z,23.77
2023-02-22T04:43:42.173Z,24.00
2023-02-22T04:46:28.133Z,25.42
2023-02-22T04:48:55.952Z,27.30
2023-02-22T04:51:26.531Z,25.02
2023-02-22T04:53:58.232Z,23.27
2023-02-22T04:56:26.213Z,24.67
2023-02-22T04:58:53.612Z,24.63
2023-02-22T05:01:20.808Z,22.67
2023-02-22T05:03:48.200Z,23.92
2023-02-22T05:06:17.780Z,22.25
2023-02-22T05:08:44.972Z,23.92
2023-02-22T05:11:12.132Z,26.45
2023-02-22T05:13:39.344Z,24.40
2023-02-22T05:16:06.845Z,23.98
2023-02-22T05:18:34.073Z,23.90
2023-02-22T05:21:01.268Z,27.73
2023-02-22T05:23:28.441Z,25.63
2023-02-22T05:25:55.684Z,23.58
2023-02-22T05:28:22.908Z,24.60
2023-02-22T05:30:50.169Z,23.98
2023-02-22T05:33:17.427Z,22.50
2023-02-22T05:35:44.842Z,21.60
2023-02-22T05:38:15.176Z,20.88
2023-02-22T05:40:43.108Z,19.13
2023-02-22T05:43:10.816Z,23.88
2023-02-22T05:45:38.026Z,21.85
2023-02-22T05:48:05.486Z,23.83
2023-02-22T05:50:33.324Z,22.38
2023-02-22T05:53:01.314Z,21.48
2023-02-22T05:55:28.573Z,22.85
2023-02-22T05:57:55.697Z,22.50
2023-02-22T06:00:29.180Z,21.60
2023-02-22T06:03:06.148Z,21.13
2023-02-22T06:05:33.396Z,22.70
2023-02-22T06:08:02.112Z,22.80
2023-02-22T06:10:30.145Z,21.00
2023-02-22T06:12:58.241Z,21.10
2023-02-22T06:15:26.241Z,21.90
2023-02-22T06:17:54.212Z,23.65
2023-02-22T06:20:23.377Z,22.38
2023-02-22T06:22:52.508Z,30.88
2023-02-22T06:25:24.159Z,23.42
2023-02-22T06:27:52.043Z,26.33
2023-02-22T06:30:22.215Z,23.95
2023-02-22T06:32:49.494Z,22.98
2023-02-22T06:35:17.394Z,24.40
2023-02-22T06:37:45.057Z,26.45
2023-02-22T06:40:13.299Z,24.15
2023-02-22T06:42:41.093Z,28.33
2023-02-22T06:45:08.837Z,21.85
2023-02-22T06:47:42.183Z,23.27
2023-02-22T06:50:32.302Z,24.85
2023-02-22T06:53:00.454Z,24.45
2023-02-22T06:55:32.757Z,21.65
2023-02-22T06:58:00.843Z,23.42
2023-02-22T07:00:29.936Z,22.52
2023-02-22T07:02:58.905Z,23.77
2023-02-22T07:05:27.401Z,18.73
2023-02-22T07:07:56.280Z,17.90
2023-02-22T07:10:27.654Z,16.92
2023-02-22T07:12:55.238Z,20.67
2023-02-22T07:15:24.926Z,19.70
2023-02-22T07:17:52.708Z,23.52
2023-02-22T07:20:20.909Z,19.70
2023-02-22T07:22:49.205Z,18.88
2023-02-22T07:25:16.748Z,20.73
2023-02-22T07:27:44.086Z,20.23
2023-02-22T07:30:31.224Z,21.33
2023-02-22T07:33:01.012Z,20.27
2023-02-22T07:35:31.253Z,19.83
2023-02-22T07:37:58.699Z,19.50
2023-02-22T07:40:27.537Z,19.42
2023-02-22T07:43:06.840Z,19.63
2023-02-22T07:45:35.682Z,19.27
2023-02-22T07:48:05.053Z,18.33
2023-02-22T07:50:33.423Z,17.88
2023-02-22T07:53:03.552Z,17.77
2023-02-22T07:55:32.448Z,17.58
2023-02-22T07:58:02.112Z,16.90
2023-02-22T08:00:35.188Z,18.40
2023-02-22T08:03:04.952Z,16.70
2023-02-22T08:05:33.971Z,16.20
2023-02-22T08:08:02.249Z,16.50
2023-02-22T08:10:30.998Z,14.90
2023-02-22T08:12:58.668Z,15.20
2023-02-22T08:15:32.216Z,15.65
2023-02-22T08:18:01.091Z,15.65
2023-02-22T08:20:29.780Z,15.23
2023-02-22T08:22:57.876Z,14.77
2023-02-22T08:25:27.944Z,12.75
2023-02-22T08:28:01.522Z,14.05
2023-02-22T08:30:30.965Z,14.80
2023-02-22T08:32:59.147Z,13.20
2023-02-22T08:35:27.687Z,12.60
2023-02-22T08:38:00.824Z,12.77
2023-02-22T08:40:31.181Z,13.75
2023-02-22T08:42:58.767Z,12.95
2023-02-22T08:45:26.003Z,10.13
2023-02-22T08:47:53.276Z,10.38
2023-02-22T08:50:24.558Z,9.23
2023-02-22T08:52:56.573Z,12.07
2023-02-22T08:55:25.288Z,10.85
2023-02-22T08:57:52.597Z,11.80
2023-02-22T09:00:21.115Z,11.45
2023-02-22T09:02:48.286Z,9.98
2023-02-22T09:05:17.166Z,11.23
2023-02-22T09:07:44.877Z,10.38
2023-02-22T09:10:18.159Z,10.18
2023-02-22T09:12:45.278Z,10.60
2023-02-22T09:15:12.865Z,8.57
2023-02-22T09:17:40.109Z,9.23
2023-02-22T09:20:08.992Z,9.70
2023-02-22T09:22:36.173Z,9.55
2023-02-22T09:25:15.914Z,9.18
2023-02-22T09:27:44.238Z,9.23
2023-02-22T09:30:25.037Z,10.40
2023-02-22T09:32:54.587Z,11.43
2023-02-22T09:35:27.257Z,10.43
2023-02-22T09:38:00.195Z,10.88
2023-02-22T09:40:30.938Z,10.70
2023-02-22T09:43:07.413Z,11.73
2023-02-22T09:45:48.898Z,10.80
2023-02-22T09:48:22.191Z,11.17
2023-02-22T09:50:53.982Z,11.60
2023-02-22T09:53:33.367Z,12.67
2023-02-22T09:56:17.457Z,11.13
2023-02-22T09:58:47.639Z,10.50
2023-02-22T10:01:23.952Z,12.20
2023-02-22T10:03:55.815Z,11.23
2023-02-22T10:06:25.217Z,11.07
2023-02-22T10:08:56.534Z,11.00
2023-02-22T10:11:37.663Z,11.17
2023-02-22T10:14:11.036Z,12.07
2023-02-22T10:16:57.820Z,11.50
2023-02-22T10:19:28.700Z,12.40
2023-02-22T10:22:13.760Z,12.50
2023-02-22T10:24:57.445Z,13.25
2023-02-22T10:27:34.343Z,16.90
2023-02-22T10:30:35.407Z,17.95
2023-02-22T10:33:09.663Z,17.23
2023-02-22T10:35:41.170Z,38.28
2023-02-22T10:38:20.267Z,17.65
2023-02-22T10:41:09.248Z,15.82
2023-02-22T10:43:43.872Z,20.65
2023-02-22T10:46:18.955Z,15.07
2023-02-22T10:48:50.470Z,16.80
2023-02-22T10:51:18.079Z,17.23
2023-02-22T10:53:55.849Z,14.05
2023-02-22T10:56:26.566Z,16.25
2023-02-22T10:59:06.056Z,15.88
2023-02-22T11:01:33.360Z,15.38
2023-02-22T11:04:21.939Z,15.98
2023-02-22T11:07:07.398Z,13.45
2023-02-22T11:09:57.368Z,15.65
2023-02-22T11:12:40.118Z,14.90
2023-02-22T11:15:19.787Z,15.10
2023-02-22T11:17:49.108Z,15.07
2023-02-22T11:20:35.685Z,14.98
2023-02-22T11:23:05.467Z,16.38
2023-02-22T11:25:36.629Z,14.77
2023-02-22T11:28:15.213Z,15.02
2023-02-22T11:30:46.929Z,13.60
2023-02-22T11:33:25.960Z,13.40
2023-02-22T11:36:04.854Z,11.80
2023-02-22T11:38:34.550Z,11.73
2023-02-22T11:41:11.420Z,10.68
2023-02-22T11:43:39.190Z,11.45
2023-02-22T11:46:19.223Z,11.60
2023-02-22T11:48:56.461Z,11.35
2023-02-22T11:51:23.710Z,10.93
2023-02-22T11:53:54.020Z,11.68
2023-02-22T11:56:49.295Z,12.30
2023-02-22T11:59:28.295Z,11.32
2023-02-22T12:02:15.139Z,12.07
2023-02-22T12:05:08.388Z,10.60
2023-02-22T12:07:42.338Z,11.25
2023-02-22T12:10:09.455Z,9.55
2023-02-22T12:12:40.358Z,10.68
2023-02-22T12:15:31.987Z,10.80
2023-02-22T12:18:02.060Z,9.13
2023-02-22T12:20:57.632Z,8.90
2023-02-22T12:23:58.864Z,9.48
2023-02-22T12:26:33.336Z,10.18
2023-02-22T12:29:26.683Z,10.48
2023-02-22T12:32:06.681Z,10.07
2023-02-22T12:34:47.533Z,9.23
2023-02-22T12:37:30.262Z,10.55
2023-02-22T12:40:30.966Z,9.95
2023-02-22T12:43:05.618Z,11.73
2023-02-22T12:45:41.043Z,11.10
2023-02-22T12:48:36.862Z,11.25
2023-02-22T12:51:28.769Z,10.65
2023-02-22T12:54:11.992Z,9.43
2023-02-22T12:56:50.814Z,10.00
2023-02-22T12:59:45.888Z,9.95
2023-02-22T13:02:15.916Z,9.00
2023-02-22T13:04:43.134Z,8.18
2023-02-22T13:07:31.955Z,10.65
2023-02-22T13:10:31.374Z,10.45
2023-02-22T13:13:04.871Z,9.18
2023-02-22T13:16:08.255Z,10.02
2023-02-22T13:19:02.056Z,10.40
2023-02-22T13:21:49.718Z,9.52
2023-02-22T13:24:48.289Z,9.82
2023-02-22T13:27:26.029Z,11.18
2023-02-22T13:29:58.989Z,10.85
2023-02-22T13:32:32.426Z,10.57
2023-02-22T13:35:29.770Z,10.68
2023-02-22T13:38:35.226Z,11.57
2023-02-22T13:41:31.829Z,10.50
2023-02-22T13:44:17.274Z,10.10
2023-02-22T13:47:25.589Z,10.30
2023-02-22T13:50:15.760Z,8.57
2023-02-22T13:52:44.945Z,8.75
2023-02-22T13:55:34.637Z,8.10
2023-02-22T13:58:09.662Z,7.57
2023-02-22T14:00:47.606Z,7.90
2023-02-22T14:03:14.767Z,8.93
2023-02-22T14:05:42.479Z,9.38
2023-02-22T14:08:36.960Z,9.48
2023-02-22T14:11:33.358Z,10.10
2023-02-22T14:14:03.217Z,9.95
2023-02-22T14:16:31.841Z,11.68
2023-02-22T14:19:06.738Z,10.00
2023-02-22T14:21:35.218Z,10.95
2023-02-22T14:24:13.977Z,8.95
2023-02-22T14:26:53.787Z,10.93
2023-02-22T14:29:21.856Z,11.75
2023-02-22T14:31:52.207Z,9.98
2023-02-22T14:34:21.458Z,10.00
2023-02-22T14:36:51.735Z,9.63
2023-02-22T14:39:51.024Z,11.02
2023-02-22T14:42:51.020Z,9.60
2023-02-22T14:45:24.938Z,8.85
2023-02-22T14:48:24.952Z,10.93
2023-02-22T14:51:11.737Z,8.57
2023-02-22T14:54:21.093Z,8.25
2023-02-22T14:57:14.769Z,9.48
2023-02-22T15:00:01.361Z,9.63
2023-02-22T15:02:39.005Z,10.15
2023-02-22T15:05:06.325Z,10.00
2023-02-22T15:07:35.902Z,9.43
2023-02-22T15:10:21.295Z,9.38
2023-02-22T15:13:09.046Z,8.75
2023-02-22T15:15:48.829Z,10.57
2023-02-22T15:18:34.771Z,9.13
2023-02-22T15:21:15.585Z,8.98
2023-02-22T15:23:49.859Z,8.90
2023-02-22T15:26:20.550Z,9.32
2023-02-22T15:28:48.506Z,9.05
2023-02-22T15:31:22.720Z,7.10
2023-02-22T15:33:53.144Z,9.00
2023-02-22T15:36:25.548Z,8.65
2023-02-22T15:38:56.022Z,8.82
2023-02-22T15:41:31.580Z,8.52
2023-02-22T15:44:05.490Z,8.52
2023-02-22T15:46:35.597Z,7.80
2023-02-22T15:49:12.189Z,7.60
2023-02-22T15:51:42.748Z,7.60
2023-02-22T15:54:15.649Z,7.15
2023-02-22T15:59:29.661Z,7.00
2023-02-22T16:01:59.199Z,6.97
2023-02-22T16:04:31.703Z,7.28
2023-02-22T16:07:17.076Z,7.10
2023-02-22T16:09:51.412Z,8.40
2023-02-22T16:12:21.788Z,6.97
2023-02-22T16:14:50.126Z,6.90
2023-02-22T16:18:01.547Z,8.02
2023-02-22T16:20:30.920Z,6.80
2023-02-22T16:22:58.500Z,7.90
2023-02-22T16:25:29.106Z,8.27
2023-02-22T16:28:23.810Z,7.22
2023-02-22T16:30:58.436Z,7.72
2023-02-22T16:33:29.908Z,5.60
2023-02-22T16:35:57.232Z,5.18
2023-02-22T16:38:27.614Z,5.45
2023-02-22T16:40:58.110Z,5.80
2023-02-22T16:43:29.580Z,4.82
2023-02-22T16:45:56.763Z,4.63
2023-02-22T16:48:27.111Z,4.50
2023-02-22T16:50:57.170Z,4.85
2023-02-22T16:53:27.286Z,4.55
2023-02-22T16:55:59.285Z,4.70
2023-02-22T16:58:30.168Z,4.35
2023-02-22T17:00:57.722Z,5.20
2023-02-22T17:03:26.169Z,4.68
2023-02-22T17:05:53.776Z,4.90
2023-02-22T17:08:21.099Z,5.20
2023-02-22T17:10:51.635Z,4.30
2023-02-22T17:13:27.148Z,5.78
2023-02-22T17:15:55.066Z,5.18
2023-02-22T17:18:23.838Z,4.88
2023-02-22T17:20:55.150Z,4.93
2023-02-22T17:23:23.172Z,4.55
2023-02-22T17:26:04.319Z,6.32
2023-02-22T17:28:31.955Z,4.18
2023-02-22T17:31:03.228Z,5.18
2023-02-22T17:33:33.546Z,5.22
2023-02-22T17:36:03.212Z,4.95
2023-02-22T17:38:30.883Z,4.22
2023-02-22T17:40:59.369Z,5.22
2023-02-22T17:43:28.144Z,5.35
2023-02-22T17:45:56.394Z,5.72
2023-02-22T17:48:24.695Z,5.65
2023-02-22T17:50:53.031Z,7.07
2023-02-22T17:53:25.519Z,5.80
2023-02-22T17:55:53.067Z,4.93
2023-02-22T17:58:20.844Z,6.05
2023-02-22T18:00:49.894Z,6.13
2023-02-22T18:03:24.980Z,4.72
2023-02-22T18:05:56.105Z,5.53
2023-02-22T18:08:24.886Z,5.57
2023-02-22T18:10:56.476Z,5.47
2023-02-22T18:13:26.561Z,5.47
2023-02-22T18:15:57.913Z,4.85
2023-02-22T18:18:25.381Z,5.57
2023-02-22T18:20:55.719Z,5.90
2023-02-22T18:23:24.061Z,4.38
2023-02-22T18:26:09.247Z,5.40
2023-02-22T18:28:38.097Z,4.80
2023-02-22T18:31:14.727Z,4.85
2023-02-22T18:33:43.403Z,5.47
2023-02-22T18:36:11.622Z,5.68
2023-02-22T18:38:43.484Z,5.55
2023-02-22T18:41:16.450Z,6.07
2023-02-22T18:43:44.300Z,5.30
2023-02-22T18:46:18.334Z,5.63
2023-02-22T18:48:51.794Z,5.40
2023-02-22T18:51:19.086Z,5.30
2023-02-22T18:53:47.993Z,5.78
2023-02-22T18:56:22.390Z,5.57
2023-02-22T18:58:58.707Z,5.03
2023-02-22T19:01:26.395Z,5.10
2023-02-22T19:03:54.293Z,8.00
2023-02-22T19:06:24.416Z,6.60
2023-02-22T19:08:51.915Z,5.90
2023-02-22T19:11:22.138Z,5.00
2023-02-22T19:13:51.790Z,5.70
2023-02-22T19:16:21.864Z,6.60
2023-02-22T19:18:52.959Z,5.32
2023-02-22T19:21:21.353Z,6.10
2023-02-22T19:23:49.808Z,6.03
2023-02-22T19:26:26.495Z,7.68
2023-02-22T19:28:56.238Z,7.53
2023-02-22T19:31:34.019Z,8.02
2023-02-22T19:34:11.371Z,7.72
2023-02-22T19:36:41.500Z,6.82
2023-02-22T19:39:09.338Z,8.52
2023-02-22T19:41:36.823Z,8.55
2023-02-22T19:44:05.208Z,8.93
2023-02-22T19:46:33.164Z,9.27
2023-02-22T19:49:02.079Z,7.70
2023-02-22T19:51:31.830Z,7.75
2023-02-22T19:54:02.649Z,7.53
2023-02-22T19:56:31.639Z,7.18
2023-02-22T19:59:03.204Z,6.43
2023-02-22T20:01:33.402Z,7.40
2023-02-22T20:04:03.937Z,6.40
2023-02-22T20:06:43.266Z,7.05
2023-02-22T20:09:19.763Z,8.55
2023-02-22T20:11:48.134Z,6.35
2023-02-22T20:14:24.420Z,5.60
2023-02-22T20:16:52.996Z,5.78
2023-02-22T20:19:22.653Z,6.53
2023-02-22T20:21:50.014Z,7.30
2023-02-22T20:24:18.486Z,6.20
2023-02-22T20:26:46.919Z,6.10
2023-02-22T20:29:14.991Z,6.75
2023-02-22T20:31:43.909Z,7.32
2023-02-22T20:34:12.014Z,8.32
2023-02-22T20:36:41.515Z,7.47
2023-02-22T20:39:13.538Z,8.88
2023-02-22T20:41:43.092Z,7.18
2023-02-22T20:44:13.638Z,6.43
2023-02-22T20:46:41.307Z,7.25
2023-02-22T20:49:11.328Z,6.15
2023-02-22T20:51:42.256Z,5.25
2023-02-22T20:54:12.429Z,6.05
2023-02-22T20:56:42.075Z,6.20
2023-02-22T20:59:13.601Z,5.43
2023-02-22T21:01:42.189Z,6.03
2023-02-22T21:04:10.513Z,4.78
2023-02-22T21:06:39.508Z,5.13
2023-02-22T21:09:11.719Z,5.18
2023-02-22T21:11:40.293Z,4.75
2023-02-22T21:14:08.908Z,4.60
2023-02-22T21:16:37.196Z,5.43
2023-02-22T21:19:07.581Z,4.68
2023-02-22T21:21:35.736Z,5.28
2023-02-22T21:24:03.217Z,4.85
2023-02-22T21:26:34.129Z,5.50
2023-02-22T21:29:05.074Z,5.82
2023-02-22T21:31:34.272Z,5.05
2023-02-22T21:34:02.291Z,5.90
2023-02-22T21:36:30.559Z,5.57
2023-02-22T21:39:01.941Z,5.07
2023-02-22T21:41:31.119Z,5.88
2023-02-22T21:43:59.629Z,6.93
2023-02-22T21:46:29.077Z,5.93
2023-02-22T21:48:58.804Z,5.65
2023-02-22T21:51:31.744Z,6.85
2023-02-22T21:54:01.857Z,6.43
2023-02-22T21:56:32.476Z,8.07
2023-02-22T21:59:03.713Z,7.78
2023-02-22T22:01:33.993Z,6.57
2023-02-22T22:04:02.507Z,7.25
2023-02-22T22:06:32.167Z,7.90
2023-02-22T22:09:04.997Z,7.53
2023-02-22T22:11:32.810Z,6.68
2023-02-22T22:14:00.533Z,7.07
2023-02-22T22:16:31.170Z,6.68
2023-02-22T22:18:58.593Z,6.85
2023-02-22T22:21:26.272Z,7.50
2023-02-22T22:23:57.519Z,6.18
2023-02-22T22:26:26.241Z,6.30
2023-02-22T22:28:58.946Z,5.97
2023-02-22T22:31:27.201Z,5.15
2023-02-22T22:33:56.342Z,5.60
2023-02-22T22:36:26.104Z,5.38
2023-02-22T22:38:57.709Z,5.78
2023-02-22T22:41:28.253Z,6.55
2023-02-22T22:43:56.032Z,5.60
2023-02-22T22:46:23.512Z,4.53
2023-02-22T22:48:51.025Z,5.25
2023-02-22T22:51:20.766Z,5.00
2023-02-22T22:53:49.789Z,4.22
2023-02-22T22:56:29.095Z,4.57
2023-02-22T22:58:58.188Z,4.45
2023-02-22T23:01:34.111Z,4.57
2023-02-22T23:04:03.448Z,4.65
2023-02-22T23:06:40.952Z,4.95
2023-02-22T23:09:14.422Z,5.50
2023-02-22T23:11:47.326Z,4.72
2023-02-22T23:14:19.527Z,4.97
2023-02-22T23:19:19.296Z,7.10
2023-02-22T23:21:48.758Z,6.50
2023-02-22T23:24:19.671Z,5.53
2023-02-22T23:26:50.349Z,6.40
2023-02-22T23:29:19.807Z,6.95
2023-02-22T23:31:48.452Z,6.65
2023-02-22T23:34:21.265Z,7.43
2023-02-22T23:36:54.252Z,8.00
2023-02-22T23:39:23.184Z,7.85
2023-02-22T23:41:51.867Z,8.35
2023-02-22T23:44:19.974Z,8.40
2023-02-22T23:46:48.768Z,9.57
2023-02-22T23:49:20.712Z,9.48
2023-02-22T23:51:48.431Z,9.63
2023-02-22T23:54:19.357Z,8.77
2023-02-22T23:56:56.260Z,9.77
2023-02-22T23:59:25.510Z,10.55
